sensor_id;sensor_type;location;lat;lon;timestamp;temperature;humidity
37380;DHT22;23252;-33.992;18.480;2022-09-28T00:03:46;14.90;99.90
37380;DHT22;23252;-33.992;18.480;2022-09-28T00:06:16;14.90;99.90
37380;DHT22;23252;-33.992;18.480;2022-09-28T00:08:43;14.90;99.90
37380;DHT22;23252;-33.992;18.480;2022-09-28T00:11:13;14.80;99.90
37380;DHT22;23252;-33.992;18.480;2022-09-28T00:13:44;14.80;99.90
37380;DHT22;23252;-33.992;18.480;2022-09-28T00:16:16;14.80;99.90
37380;DHT22;23252;-33.992;18.480;2022-09-28T00:18:45;14.70;99.90
37380;DHT22;23252;-33.992;18.480;2022-09-28T00:21:17;14.70;99.90
37380;DHT22;23252;-33.992;18.480;2022-09-28T00:23:46;14.70;99.90
37380;DHT22;23252;-33.992;18.480;2022-09-28T00:26:32;14.70;99.90
37380;DHT22;23252;-33.992;18.480;2022-09-28T00:29:01;14.60;99.90
37380;DHT22;23252;-33.992;18.480;2022-09-28T00:31:30;14.60;99.90
37380;DHT22;23252;-33.992;18.480;2022-09-28T00:33:58;14.60;99.90
37380;DHT22;23252;-33.992;18.480;2022-09-28T00:36:27;14.50;99.90
37380;DHT22;23252;-33.992;18.480;2022-09-28T00:38:54;14.50;99.90
37380;DHT22;23252;-33.992;18.480;2022-09-28T00:41:26;14.60;99.90
37380;DHT22;23252;-33.992;18.480;2022-09-28T00:43:55;14.60;99.90
37380;DHT22;23252;-33.992;18.480;2022-09-28T00:46:40;14.50;99.90
37380;DHT22;23252;-33.992;18.480;2022-09-28T00:49:14;14.50;99.90
37380;DHT22;23252;-33.992;18.480;2022-09-28T00:51:43;14.50;99.90
37380;DHT22;23252;-33.992;18.480;2022-09-28T00:54:12;14.50;99.90
37380;DHT22;23252;-33.992;18.480;2022-09-28T00:56:41;14.50;99.90
37380;DHT22;23252;-33.992;18.480;2022-09-28T00:59:12;14.60;99.90
37380;DHT22;23252;-33.992;18.480;2022-09-28T01:01:39;14.60;99.90
37380;DHT22;23252;-33.992;18.480;2022-09-28T01:04:06;14.50;99.90
37380;DHT22;23252;-33.992;18.480;2022-09-28T01:06:37;14.50;99.90
37380;DHT22;23252;-33.992;18.480;2022-09-28T01:09:08;14.50;99.90
37380;DHT22;23252;-33.992;18.480;2022-09-28T01:11:37;14.40;99.90
37380;DHT22;23252;-33.992;18.480;2022-09-28T01:14:06;14.40;99.90
37380;DHT22;23252;-33.992;18.480;2022-09-28T01:19:36;14.00;99.90
37380;DHT22;23252;-33.992;18.480;2022-09-28T01:22:25;13.90;99.90
37380;DHT22;23252;-33.992;18.480;2022-09-28T01:25:06;13.90;99.90
37380;DHT22;23252;-33.992;18.480;2022-09-28T01:27:40;14.00;99.90
37380;DHT22;23252;-33.992;18.480;2022-09-28T01:30:14;14.10;99.90
37380;DHT22;23252;-33.992;18.480;2022-09-28T01:39:00;14.10;99.90
37380;DHT22;23252;-33.992;18.480;2022-09-28T01:40:57;14.10;99.90
37380;DHT22;23252;-33.992;18.480;2022-09-28T01:43:29;14.10;99.90
37380;DHT22;23252;-33.992;18.480;2022-09-28T01:48:55;14.00;99.90
37380;DHT22;23252;-33.992;18.480;2022-09-28T01:54:13;14.00;99.90
37380;DHT22;23252;-33.992;18.480;2022-09-28T01:56:53;14.10;99.90
37380;DHT22;23252;-33.992;18.480;2022-09-28T01:59:27;14.00;99.90
37380;DHT22;23252;-33.992;18.480;2022-09-28T02:02:04;14.00;99.90
37380;DHT22;23252;-33.992;18.480;2022-09-28T02:04:46;13.90;99.90
37380;DHT22;23252;-33.992;18.480;2022-09-28T02:07:18;13.90;99.90
37380;DHT22;23252;-33.992;18.480;2022-09-28T02:09:49;13.90;99.90
37380;DHT22;23252;-33.992;18.480;2022-09-28T02:12:30;13.90;99.90
37380;DHT22;23252;-33.992;18.480;2022-09-28T02:15:29;13.90;99.90
37380;DHT22;23252;-33.992;18.480;2022-09-28T02:17:55;13.90;99.90
37380;DHT22;23252;-33.992;18.480;2022-09-28T02:20:23;13.90;99.90
37380;DHT22;23252;-33.992;18.480;2022-09-28T02:22:50;13.90;99.90
37380;DHT22;23252;-33.992;18.480;2022-09-28T02:25:39;14.00;99.90
37380;DHT22;23252;-33.992;18.480;2022-09-28T02:28:10;14.00;99.90
37380;DHT22;23252;-33.992;18.480;2022-09-28T02:30:41;14.00;99.90
37380;DHT22;23252;-33.992;18.480;2022-09-28T02:33:20;13.90;99.90
37380;DHT22;23252;-33.992;18.480;2022-09-28T02:35:48;13.80;99.90
37380;DHT22;23252;-33.992;18.480;2022-09-28T02:38:15;13.80;99.90
37380;DHT22;23252;-33.992;18.480;2022-09-28T02:41:01;13.70;99.90
37380;DHT22;23252;-33.992;18.480;2022-09-28T02:46:45;13.60;99.90
37380;DHT22;23252;-33.992;18.480;2022-09-28T02:57:54;13.50;99.90
37380;DHT22;23252;-33.992;18.480;2022-09-28T03:00:26;13.60;99.90
37380;DHT22;23252;-33.992;18.480;2022-09-28T03:08:23;13.50;99.90
37380;DHT22;23252;-33.992;18.480;2022-09-28T03:10:54;13.50;99.90
37380;DHT22;23252;-33.992;18.480;2022-09-28T03:13:22;13.50;99.90
37380;DHT22;23252;-33.992;18.480;2022-09-28T03:15:49;13.40;99.90
37380;DHT22;23252;-33.992;18.480;2022-09-28T03:18:16;13.30;99.90
37380;DHT22;23252;-33.992;18.480;2022-09-28T03:20:43;13.40;99.90
37380;DHT22;23252;-33.992;18.480;2022-09-28T03:23:09;13.30;99.90
37380;DHT22;23252;-33.992;18.480;2022-09-28T03:25:36;13.30;99.90
37380;DHT22;23252;-33.992;18.480;2022-09-28T03:28:03;13.30;99.90
37380;DHT22;23252;-33.992;18.480;2022-09-28T03:30:29;13.30;99.90
37380;DHT22;23252;-33.992;18.480;2022-09-28T03:32:59;13.30;99.90
37380;DHT22;23252;-33.992;18.480;2022-09-28T03:35:27;13.30;99.90
37380;DHT22;23252;-33.992;18.480;2022-09-28T03:37:57;13.30;99.90
37380;DHT22;23252;-33.992;18.480;2022-09-28T03:40:24;13.30;99.90
37380;DHT22;23252;-33.992;18.480;2022-09-28T03:42:53;13.30;99.90
37380;DHT22;23252;-33.992;18.480;2022-09-28T03:45:41;13.20;99.90
37380;DHT22;23252;-33.992;18.480;2022-09-28T03:48:07;13.20;99.90
37380;DHT22;23252;-33.992;18.480;2022-09-28T03:50:40;13.20;99.90
37380;DHT22;23252;-33.992;18.480;2022-09-28T03:53:06;13.20;99.90
37380;DHT22;23252;-33.992;18.480;2022-09-28T03:55:35;13.10;99.90
37380;DHT22;23252;-33.992;18.480;2022-09-28T03:58:03;13.20;99.90
37380;DHT22;23252;-33.992;18.480;2022-09-28T04:00:32;13.20;99.90
37380;DHT22;23252;-33.992;18.480;2022-09-28T04:03:21;13.20;99.90
37380;DHT22;23252;-33.992;18.480;2022-09-28T04:05:51;13.10;99.90
37380;DHT22;23252;-33.992;18.480;2022-09-28T04:08:19;13.20;99.90
37380;DHT22;23252;-33.992;18.480;2022-09-28T04:10:48;13.10;99.90
37380;DHT22;23252;-33.992;18.480;2022-09-28T04:13:15;13.10;99.90
37380;DHT22;23252;-33.992;18.480;2022-09-28T04:15:42;13.10;99.90
37380;DHT22;23252;-33.992;18.480;2022-09-28T04:18:17;13.10;99.90
37380;DHT22;23252;-33.992;18.480;2022-09-28T04:20:43;13.10;99.90
37380;DHT22;23252;-33.992;18.480;2022-09-28T04:23:16;13.00;99.90
37380;DHT22;23252;-33.992;18.480;2022-09-28T04:25:50;13.00;99.90
37380;DHT22;23252;-33.992;18.480;2022-09-28T04:28:19;13.00;99.90
37380;DHT22;23252;-33.992;18.480;2022-09-28T04:31:14;12.90;99.90
37380;DHT22;23252;-33.992;18.480;2022-09-28T04:33:41;13.00;99.90
37380;DHT22;23252;-33.992;18.480;2022-09-28T04:36:08;12.90;99.90
37380;DHT22;23252;-33.992;18.480;2022-09-28T04:38:36;12.90;99.90
37380;DHT22;23252;-33.992;18.480;2022-09-28T04:41:03;12.90;99.90
37380;DHT22;23252;-33.992;18.480;2022-09-28T04:43:31;13.00;99.90
37380;DHT22;23252;-33.992;18.480;2022-09-28T04:45:59;13.00;99.90
37380;DHT22;23252;-33.992;18.480;2022-09-28T04:48:26;13.10;99.90
37380;DHT22;23252;-33.992;18.480;2022-09-28T04:50:57;13.10;99.90
37380;DHT22;23252;-33.992;18.480;2022-09-28T04:53:28;13.10;99.90
37380;DHT22;23252;-33.992;18.480;2022-09-28T04:56:13;13.10;99.90
37380;DHT22;23252;-33.992;18.480;2022-09-28T04:58:41;13.20;99.90
37380;DHT22;23252;-33.992;18.480;2022-09-28T05:01:14;13.10;99.90
37380;DHT22;23252;-33.992;18.480;2022-09-28T05:03:44;13.20;99.90
37380;DHT22;23252;-33.992;18.480;2022-09-28T05:06:19;13.20;99.90
37380;DHT22;23252;-33.992;18.480;2022-09-28T05:08:51;13.30;99.90
37380;DHT22;23252;-33.992;18.480;2022-09-28T05:11:43;13.30;99.90
37380;DHT22;23252;-33.992;18.480;2022-09-28T05:14:11;13.40;99.90
37380;DHT22;23252;-33.992;18.480;2022-09-28T05:16:44;13.40;99.90
37380;DHT22;23252;-33.992;18.480;2022-09-28T05:19:13;13.40;99.90
37380;DHT22;23252;-33.992;18.480;2022-09-28T05:21:45;13.40;99.90
37380;DHT22;23252;-33.992;18.480;2022-09-28T05:24:19;13.40;99.90
37380;DHT22;23252;-33.992;18.480;2022-09-28T05:26:48;13.50;99.90
37380;DHT22;23252;-33.992;18.480;2022-09-28T05:29:17;13.50;99.90
37380;DHT22;23252;-33.992;18.480;2022-09-28T05:31:44;13.50;99.90
37380;DHT22;23252;-33.992;18.480;2022-09-28T05:34:13;13.60;99.90
37380;DHT22;23252;-33.992;18.480;2022-09-28T05:36:45;13.70;99.90
37380;DHT22;23252;-33.992;18.480;2022-09-28T05:39:12;13.80;99.90
37380;DHT22;23252;-33.992;18.480;2022-09-28T05:41:38;13.80;99.90
37380;DHT22;23252;-33.992;18.480;2022-09-28T05:44:08;13.90;99.90
37380;DHT22;23252;-33.992;18.480;2022-09-28T05:46:34;14.00;99.90
37380;DHT22;23252;-33.992;18.480;2022-09-28T05:49:04;14.10;99.90
37380;DHT22;23252;-33.992;18.480;2022-09-28T05:51:40;14.10;99.90
37380;DHT22;23252;-33.992;18.480;2022-09-28T05:54:09;14.20;99.90
37380;DHT22;23252;-33.992;18.480;2022-09-28T05:56:42;14.30;99.90
37380;DHT22;23252;-33.992;18.480;2022-09-28T05:59:08;14.40;99.90
37380;DHT22;23252;-33.992;18.480;2022-09-28T06:01:38;14.50;99.90
37380;DHT22;23252;-33.992;18.480;2022-09-28T06:04:05;14.50;99.90
37380;DHT22;23252;-33.992;18.480;2022-09-28T06:06:37;14.60;99.90
37380;DHT22;23252;-33.992;18.480;2022-09-28T06:09:04;14.60;99.90
37380;DHT22;23252;-33.992;18.480;2022-09-28T06:11:31;14.70;99.90
37380;DHT22;23252;-33.992;18.480;2022-09-28T06:14:00;14.80;99.90
37380;DHT22;23252;-33.992;18.480;2022-09-28T06:16:27;14.90;99.90
37380;DHT22;23252;-33.992;18.480;2022-09-28T06:18:56;15.00;99.90
37380;DHT22;23252;-33.992;18.480;2022-09-28T06:21:23;15.00;99.90
37380;DHT22;23252;-33.992;18.480;2022-09-28T06:23:52;15.10;99.90
37380;DHT22;23252;-33.992;18.480;2022-09-28T06:26:22;15.10;99.90
37380;DHT22;23252;-33.992;18.480;2022-09-28T06:28:51;15.20;99.90
37380;DHT22;23252;-33.992;18.480;2022-09-28T06:31:20;15.20;99.90
37380;DHT22;23252;-33.992;18.480;2022-09-28T06:33:49;15.30;99.90
37380;DHT22;23252;-33.992;18.480;2022-09-28T06:36:19;15.30;99.90
37380;DHT22;23252;-33.992;18.480;2022-09-28T06:38:46;15.40;99.90
37380;DHT22;23252;-33.992;18.480;2022-09-28T06:41:13;15.40;99.90
37380;DHT22;23252;-33.992;18.480;2022-09-28T06:43:39;15.40;99.90
37380;DHT22;23252;-33.992;18.480;2022-09-28T06:46:07;15.50;99.90
37380;DHT22;23252;-33.992;18.480;2022-09-28T06:48:38;15.60;99.90
37380;DHT22;23252;-33.992;18.480;2022-09-28T06:51:04;15.60;99.90
37380;DHT22;23252;-33.992;18.480;2022-09-28T06:53:31;15.70;99.90
37380;DHT22;23252;-33.992;18.480;2022-09-28T06:55:58;15.60;99.90
37380;DHT22;23252;-33.992;18.480;2022-09-28T06:58:27;15.70;99.90
37380;DHT22;23252;-33.992;18.480;2022-09-28T07:00:56;15.70;99.90
37380;DHT22;23252;-33.992;18.480;2022-09-28T07:03:25;15.80;99.90
37380;DHT22;23252;-33.992;18.480;2022-09-28T07:05:55;15.80;99.90
37380;DHT22;23252;-33.992;18.480;2022-09-28T07:08:24;15.80;99.90
37380;DHT22;23252;-33.992;18.480;2022-09-28T07:10:52;15.90;99.90
37380;DHT22;23252;-33.992;18.480;2022-09-28T07:13:25;16.10;99.90
37380;DHT22;23252;-33.992;18.480;2022-09-28T07:15:58;16.10;99.90
37380;DHT22;23252;-33.992;18.480;2022-09-28T07:18:25;16.10;99.90
37380;DHT22;23252;-33.992;18.480;2022-09-28T07:20:55;16.20;99.90
37380;DHT22;23252;-33.992;18.480;2022-09-28T07:23:25;16.20;99.90
37380;DHT22;23252;-33.992;18.480;2022-09-28T07:25:55;16.30;99.90
37380;DHT22;23252;-33.992;18.480;2022-09-28T07:28:23;16.30;99.90
37380;DHT22;23252;-33.992;18.480;2022-09-28T07:30:50;16.40;99.90
37380;DHT22;23252;-33.992;18.480;2022-09-28T07:33:16;16.50;99.90
37380;DHT22;23252;-33.992;18.480;2022-09-28T07:35:53;16.60;99.90
37380;DHT22;23252;-33.992;18.480;2022-09-28T07:38:20;16.70;99.90
37380;DHT22;23252;-33.992;18.480;2022-09-28T07:40:46;16.80;99.90
37380;DHT22;23252;-33.992;18.480;2022-09-28T07:43:31;16.80;99.90
37380;DHT22;23252;-33.992;18.480;2022-09-28T07:45:58;16.80;99.90
37380;DHT22;23252;-33.992;18.480;2022-09-28T07:48:25;16.90;99.90
37380;DHT22;23252;-33.992;18.480;2022-09-28T07:50:53;16.80;99.90
37380;DHT22;23252;-33.992;18.480;2022-09-28T07:53:23;16.90;99.90
37380;DHT22;23252;-33.992;18.480;2022-09-28T07:55:55;16.80;99.90
37380;DHT22;23252;-33.992;18.480;2022-09-28T07:58:21;16.90;99.90
37380;DHT22;23252;-33.992;18.480;2022-09-28T08:00:49;16.90;99.90
37380;DHT22;23252;-33.992;18.480;2022-09-28T08:03:15;16.90;99.90
37380;DHT22;23252;-33.992;18.480;2022-09-28T08:05:45;16.90;99.90
37380;DHT22;23252;-33.992;18.480;2022-09-28T08:08:12;16.90;99.90
37380;DHT22;23252;-33.992;18.480;2022-09-28T08:10:41;17.00;99.90
37380;DHT22;23252;-33.992;18.480;2022-09-28T08:13:08;17.10;99.90
37380;DHT22;23252;-33.992;18.480;2022-09-28T08:15:35;17.20;99.90
37380;DHT22;23252;-33.992;18.480;2022-09-28T08:18:05;17.30;99.90
37380;DHT22;23252;-33.992;18.480;2022-09-28T08:20:32;17.20;99.90
37380;DHT22;23252;-33.992;18.480;2022-09-28T08:23:17;17.20;99.90
37380;DHT22;23252;-33.992;18.480;2022-09-28T08:25:49;17.30;99.90
37380;DHT22;23252;-33.992;18.480;2022-09-28T08:28:17;17.40;99.90
37380;DHT22;23252;-33.992;18.480;2022-09-28T08:30:44;17.50;99.90
37380;DHT22;23252;-33.992;18.480;2022-09-28T08:33:16;17.50;99.90
37380;DHT22;23252;-33.992;18.480;2022-09-28T08:35:43;17.50;99.90
37380;DHT22;23252;-33.992;18.480;2022-09-28T08:38:10;17.50;99.90
37380;DHT22;23252;-33.992;18.480;2022-09-28T08:41:00;17.60;99.90
37380;DHT22;23252;-33.992;18.480;2022-09-28T08:43:40;17.60;99.90
37380;DHT22;23252;-33.992;18.480;2022-09-28T08:46:11;17.80;99.90
37380;DHT22;23252;-33.992;18.480;2022-09-28T08:48:47;17.90;99.90
37380;DHT22;23252;-33.992;18.480;2022-09-28T08:51:41;18.10;99.90
37380;DHT22;23252;-33.992;18.480;2022-09-28T08:59:51;18.30;99.90
37380;DHT22;23252;-33.992;18.480;2022-09-28T09:02:37;18.40;99.90
37380;DHT22;23252;-33.992;18.480;2022-09-28T09:05:11;18.50;99.90
37380;DHT22;23252;-33.992;18.480;2022-09-28T09:16:08;18.70;99.90
37380;DHT22;23252;-33.992;18.480;2022-09-28T09:19:25;18.80;99.90
37380;DHT22;23252;-33.992;18.480;2022-09-28T09:21:45;19.00;99.90
37380;DHT22;23252;-33.992;18.480;2022-09-28T09:24:24;18.90;99.90
37380;DHT22;23252;-33.992;18.480;2022-09-28T09:27:34;19.00;99.90
37380;DHT22;23252;-33.992;18.480;2022-09-28T09:30:19;19.00;99.90
37380;DHT22;23252;-33.992;18.480;2022-09-28T09:35:49;19.30;99.90
37380;DHT22;23252;-33.992;18.480;2022-09-28T09:46:38;19.70;99.90
37380;DHT22;23252;-33.992;18.480;2022-09-28T09:54:25;20.00;99.90
37380;DHT22;23252;-33.992;18.480;2022-09-28T09:57:01;20.00;99.90
37380;DHT22;23252;-33.992;18.480;2022-09-28T09:59:40;20.10;99.90
37380;DHT22;23252;-33.992;18.480;2022-09-28T10:02:24;20.10;99.90
37380;DHT22;23252;-33.992;18.480;2022-09-28T10:04:55;20.20;99.90
37380;DHT22;23252;-33.992;18.480;2022-09-28T10:07:27;20.30;99.90
37380;DHT22;23252;-33.992;18.480;2022-09-28T10:09:56;20.40;99.90
37380;DHT22;23252;-33.992;18.480;2022-09-28T10:12:24;20.40;99.90
37380;DHT22;23252;-33.992;18.480;2022-09-28T10:14:51;20.60;99.90
37380;DHT22;23252;-33.992;18.480;2022-09-28T10:17:20;20.60;99.90
37380;DHT22;23252;-33.992;18.480;2022-09-28T10:19:53;20.70;99.90
37380;DHT22;23252;-33.992;18.480;2022-09-28T10:22:23;20.60;99.90
37380;DHT22;23252;-33.992;18.480;2022-09-28T10:24:53;20.60;99.90
37380;DHT22;23252;-33.992;18.480;2022-09-28T10:27:31;20.60;99.90
37380;DHT22;23252;-33.992;18.480;2022-09-28T10:30:16;20.60;99.90
37380;DHT22;23252;-33.992;18.480;2022-09-28T10:32:46;20.50;99.90
37380;DHT22;23252;-33.992;18.480;2022-09-28T10:38:05;20.70;99.90
37380;DHT22;23252;-33.992;18.480;2022-09-28T10:40:39;20.80;99.90
37380;DHT22;23252;-33.992;18.480;2022-09-28T10:43:34;20.80;99.90
37380;DHT22;23252;-33.992;18.480;2022-09-28T10:46:19;20.90;99.90
37380;DHT22;23252;-33.992;18.480;2022-09-28T10:49:14;21.00;99.90
37380;DHT22;23252;-33.992;18.480;2022-09-28T10:51:49;20.90;99.90
37380;DHT22;23252;-33.992;18.480;2022-09-28T10:54:22;21.10;99.90
37380;DHT22;23252;-33.992;18.480;2022-09-28T10:56:49;21.30;99.90
37380;DHT22;23252;-33.992;18.480;2022-09-28T11:02:06;21.50;99.90
37380;DHT22;23252;-33.992;18.480;2022-09-28T11:04:43;21.60;99.90
37380;DHT22;23252;-33.992;18.480;2022-09-28T11:07:21;21.70;99.90
37380;DHT22;23252;-33.992;18.480;2022-09-28T11:09:52;21.60;99.90
37380;DHT22;23252;-33.992;18.480;2022-09-28T11:12:25;21.70;99.90
37380;DHT22;23252;-33.992;18.480;2022-09-28T11:15:02;21.80;99.90
37380;DHT22;23252;-33.992;18.480;2022-09-28T11:17:36;21.90;99.90
37380;DHT22;23252;-33.992;18.480;2022-09-28T11:20:31;22.10;99.90
37380;DHT22;23252;-33.992;18.480;2022-09-28T11:23:22;22.30;99.90
37380;DHT22;23252;-33.992;18.480;2022-09-28T11:25:56;22.50;99.90
37380;DHT22;23252;-33.992;18.480;2022-09-28T11:28:31;22.70;99.90
37380;DHT22;23252;-33.992;18.480;2022-09-28T11:30:58;22.80;99.90
37380;DHT22;23252;-33.992;18.480;2022-09-28T11:33:41;22.80;99.90
37380;DHT22;23252;-33.992;18.480;2022-09-28T11:38:40;22.80;99.90
37380;DHT22;23252;-33.992;18.480;2022-09-28T11:41:38;23.10;99.90
37380;DHT22;23252;-33.992;18.480;2022-09-28T11:52:02;24.00;99.90
37380;DHT22;23252;-33.992;18.480;2022-09-28T11:54:39;24.40;99.90
37380;DHT22;23252;-33.992;18.480;2022-09-28T11:57:13;24.90;99.90
37380;DHT22;23252;-33.992;18.480;2022-09-28T12:05:01;26.60;99.90
37380;DHT22;23252;-33.992;18.480;2022-09-28T12:07:53;26.70;99.90
37380;DHT22;23252;-33.992;18.480;2022-09-28T12:10:37;26.90;99.90
37380;DHT22;23252;-33.992;18.480;2022-09-28T12:13:12;27.10;99.90
37380;DHT22;23252;-33.992;18.480;2022-09-28T12:18:24;27.60;99.90
37380;DHT22;23252;-33.992;18.480;2022-09-28T12:23:46;28.20;99.90
37380;DHT22;23252;-33.992;18.480;2022-09-28T12:26:53;28.20;99.90
37380;DHT22;23252;-33.992;18.480;2022-09-28T12:29:19;28.20;99.90
37380;DHT22;23252;-33.992;18.480;2022-09-28T12:32:51;28.40;99.90
37380;DHT22;23252;-33.992;18.480;2022-09-28T12:34:46;28.60;99.90
37380;DHT22;23252;-33.992;18.480;2022-09-28T12:54:05;29.40;99.90
37380;DHT22;23252;-33.992;18.480;2022-09-28T12:57:12;29.40;99.90
37380;DHT22;23252;-33.992;18.480;2022-09-28T13:00:28;29.40;99.90
37380;DHT22;23252;-33.992;18.480;2022-09-28T13:09:05;29.60;99.90
37380;DHT22;23252;-33.992;18.480;2022-09-28T13:11:37;29.50;99.90
37380;DHT22;23252;-33.992;18.480;2022-09-28T13:18:06;29.90;99.90
37380;DHT22;23252;-33.992;18.480;2022-09-28T13:23:44;29.60;99.90
37380;DHT22;23252;-33.992;18.480;2022-09-28T13:29:02;29.60;99.90
37380;DHT22;23252;-33.992;18.480;2022-09-28T13:31:31;29.60;99.90
37380;DHT22;23252;-33.992;18.480;2022-09-28T13:34:01;29.60;99.90
37380;DHT22;23252;-33.992;18.480;2022-09-28T13:38:55;29.80;99.90
37380;DHT22;23252;-33.992;18.480;2022-09-28T13:41:34;29.70;99.90
37380;DHT22;23252;-33.992;18.480;2022-09-28T13:46:54;30.00;99.90
37380;DHT22;23252;-33.992;18.480;2022-09-28T13:54:59;28.90;99.90
37380;DHT22;23252;-33.992;18.480;2022-09-28T14:02:58;26.70;99.90
37380;DHT22;23252;-33.992;18.480;2022-09-28T14:05:33;26.90;99.90
37380;DHT22;23252;-33.992;18.480;2022-09-28T14:10:50;25.60;99.90
37380;DHT22;23252;-33.992;18.480;2022-09-28T14:16:24;24.40;99.90
37380;DHT22;23252;-33.992;18.480;2022-09-28T14:21:54;23.80;99.90
37380;DHT22;23252;-33.992;18.480;2022-09-28T14:30:24;22.90;99.90
37380;DHT22;23252;-33.992;18.480;2022-09-28T14:32:55;22.60;99.90
37380;DHT22;23252;-33.992;18.480;2022-09-28T14:38:11;22.20;99.90
37380;DHT22;23252;-33.992;18.480;2022-09-28T14:41:02;22.10;99.90
37380;DHT22;23252;-33.992;18.480;2022-09-28T14:48:50;22.00;99.90
37380;DHT22;23252;-33.992;18.480;2022-09-28T14:56:50;21.80;99.90
37380;DHT22;23252;-33.992;18.480;2022-09-28T14:59:29;21.80;99.90
37380;DHT22;23252;-33.992;18.480;2022-09-28T15:02:25;21.80;99.90
37380;DHT22;23252;-33.992;18.480;2022-09-28T15:04:57;21.90;99.90
37380;DHT22;23252;-33.992;18.480;2022-09-28T15:07:41;21.90;99.90
37380;DHT22;23252;-33.992;18.480;2022-09-28T15:12:53;21.90;99.90
37380;DHT22;23252;-33.992;18.480;2022-09-28T15:20:48;22.00;99.90
37380;DHT22;23252;-33.992;18.480;2022-09-28T15:23:35;22.10;99.90
37380;DHT22;23252;-33.992;18.480;2022-09-28T15:26:04;22.10;99.90
37380;DHT22;23252;-33.992;18.480;2022-09-28T15:28:35;22.10;99.90
37380;DHT22;23252;-33.992;18.480;2022-09-28T15:31:04;22.30;99.90
37380;DHT22;23252;-33.992;18.480;2022-09-28T15:33:33;22.40;99.90
37380;DHT22;23252;-33.992;18.480;2022-09-28T15:36:22;22.10;99.90
37380;DHT22;23252;-33.992;18.480;2022-09-28T15:39:14;22.00;99.90
37380;DHT22;23252;-33.992;18.480;2022-09-28T15:41:43;21.60;99.90
37380;DHT22;23252;-33.992;18.480;2022-09-28T15:47:15;21.30;99.90
37380;DHT22;23252;-33.992;18.480;2022-09-28T15:49:55;21.10;99.90
37380;DHT22;23252;-33.992;18.480;2022-09-28T15:52:38;20.90;99.90
37380;DHT22;23252;-33.992;18.480;2022-09-28T15:55:25;20.70;99.90
37380;DHT22;23252;-33.992;18.480;2022-09-28T15:58:17;20.60;99.90
37380;DHT22;23252;-33.992;18.480;2022-09-28T16:00:46;20.50;99.90
37380;DHT22;23252;-33.992;18.480;2022-09-28T16:08:22;20.10;99.90
37380;DHT22;23252;-33.992;18.480;2022-09-28T16:16:46;19.90;99.90
37380;DHT22;23252;-33.992;18.480;2022-09-28T16:19:27;19.70;99.90
37380;DHT22;23252;-33.992;18.480;2022-09-28T16:21:57;19.60;99.90
37380;DHT22;23252;-33.992;18.480;2022-09-28T16:24:27;19.50;99.90
37380;DHT22;23252;-33.992;18.480;2022-09-28T16:30:02;19.30;99.90
37380;DHT22;23252;-33.992;18.480;2022-09-28T16:32:38;19.20;99.90
37380;DHT22;23252;-33.992;18.480;2022-09-28T16:37:44;19.10;99.90
37380;DHT22;23252;-33.992;18.480;2022-09-28T16:40:13;18.90;99.90
37380;DHT22;23252;-33.992;18.480;2022-09-28T16:42:42;18.80;99.90
37380;DHT22;23252;-33.992;18.480;2022-09-28T16:45:20;18.80;99.90
37380;DHT22;23252;-33.992;18.480;2022-09-28T16:47:49;18.70;99.90
37380;DHT22;23252;-33.992;18.480;2022-09-28T16:50:22;18.60;99.90
37380;DHT22;23252;-33.992;18.480;2022-09-28T16:53:00;18.50;99.90
37380;DHT22;23252;-33.992;18.480;2022-09-28T16:55:47;18.60;99.90
37380;DHT22;23252;-33.992;18.480;2022-09-28T16:58:14;18.50;99.90
37380;DHT22;23252;-33.992;18.480;2022-09-28T17:00:41;18.40;99.90
37380;DHT22;23252;-33.992;18.480;2022-09-28T17:03:16;18.40;99.90
37380;DHT22;23252;-33.992;18.480;2022-09-28T17:05:45;18.20;99.90
37380;DHT22;23252;-33.992;18.480;2022-09-28T17:08:14;18.10;99.90
37380;DHT22;23252;-33.992;18.480;2022-09-28T17:10:58;18.00;99.90
37380;DHT22;23252;-33.992;18.480;2022-09-28T17:13:28;18.00;99.90
37380;DHT22;23252;-33.992;18.480;2022-09-28T17:16:13;17.90;99.90
37380;DHT22;23252;-33.992;18.480;2022-09-28T17:18:40;17.90;99.90
37380;DHT22;23252;-33.992;18.480;2022-09-28T17:21:14;17.80;99.90
37380;DHT22;23252;-33.992;18.480;2022-09-28T17:23:42;17.70;99.90
37380;DHT22;23252;-33.992;18.480;2022-09-28T17:26:29;17.70;99.90
37380;DHT22;23252;-33.992;18.480;2022-09-28T17:28:57;17.60;99.90
37380;DHT22;23252;-33.992;18.480;2022-09-28T17:31:28;17.50;99.90
37380;DHT22;23252;-33.992;18.480;2022-09-28T17:33:55;17.50;99.90
37380;DHT22;23252;-33.992;18.480;2022-09-28T17:36:21;17.40;99.90
37380;DHT22;23252;-33.992;18.480;2022-09-28T17:38:51;17.40;99.90
37380;DHT22;23252;-33.992;18.480;2022-09-28T17:41:19;17.40;99.90
37380;DHT22;23252;-33.992;18.480;2022-09-28T17:43:45;17.50;99.90
37380;DHT22;23252;-33.992;18.480;2022-09-28T17:46:32;17.40;99.90
37380;DHT22;23252;-33.992;18.480;2022-09-28T17:49:02;17.40;99.90
37380;DHT22;23252;-33.992;18.480;2022-09-28T17:51:31;17.30;99.90
37380;DHT22;23252;-33.992;18.480;2022-09-28T17:54:03;17.30;99.90
37380;DHT22;23252;-33.992;18.480;2022-09-28T17:56:31;17.30;99.90
37380;DHT22;23252;-33.992;18.480;2022-09-28T17:59:04;17.30;99.90
37380;DHT22;23252;-33.992;18.480;2022-09-28T18:01:31;17.20;99.90
37380;DHT22;23252;-33.992;18.480;2022-09-28T18:04:03;17.10;99.90
37380;DHT22;23252;-33.992;18.480;2022-09-28T18:06:30;17.10;99.90
37380;DHT22;23252;-33.992;18.480;2022-09-28T18:09:02;17.10;99.90
37380;DHT22;23252;-33.992;18.480;2022-09-28T18:11:33;17.20;99.90
37380;DHT22;23252;-33.992;18.480;2022-09-28T18:14:05;17.10;99.90
37380;DHT22;23252;-33.992;18.480;2022-09-28T18:16:32;17.10;99.90
37380;DHT22;23252;-33.992;18.480;2022-09-28T18:18:58;17.20;99.90
37380;DHT22;23252;-33.992;18.480;2022-09-28T18:21:25;17.20;99.90
37380;DHT22;23252;-33.992;18.480;2022-09-28T18:23:51;17.20;99.90
37380;DHT22;23252;-33.992;18.480;2022-09-28T18:26:20;17.10;99.90
37380;DHT22;23252;-33.992;18.480;2022-09-28T18:28:48;17.10;99.90
37380;DHT22;23252;-33.992;18.480;2022-09-28T18:31:18;17.10;99.90
37380;DHT22;23252;-33.992;18.480;2022-09-28T18:33:48;17.10;99.90
37380;DHT22;23252;-33.992;18.480;2022-09-28T18:36:14;17.10;99.90
37380;DHT22;23252;-33.992;18.480;2022-09-28T18:38:41;17.00;99.90
37380;DHT22;23252;-33.992;18.480;2022-09-28T18:41:13;17.10;99.90
37380;DHT22;23252;-33.992;18.480;2022-09-28T18:43:48;17.10;99.90
37380;DHT22;23252;-33.992;18.480;2022-09-28T18:46:20;17.10;99.90
37380;DHT22;23252;-33.992;18.480;2022-09-28T18:48:47;17.10;99.90
37380;DHT22;23252;-33.992;18.480;2022-09-28T18:51:13;17.10;99.90
37380;DHT22;23252;-33.992;18.480;2022-09-28T18:53:40;17.00;99.90